createdAt,value
2022-12-22T00:00:08.422Z,8.98
2022-12-22T00:02:59.347Z,9.03
2022-12-22T00:05:44.625Z,9.03
2022-12-22T00:08:45.377Z,9.15
2022-12-22T00:11:31.946Z,9.08
2022-12-22T00:14:42.619Z,8.90
2022-12-22T00:17:41.336Z,9.03
2022-12-22T00:20:38.849Z,9.19
2022-12-22T00:23:24.350Z,9.19
2022-12-22T00:26:09.274Z,9.16
2022-12-22T00:29:09.415Z,9.29
2022-12-22T00:31:54.352Z,9.24
2022-12-22T00:34:41.138Z,9.28
2022-12-22T00:37:31.158Z,9.25
2022-12-22T00:40:37.576Z,9.34
2022-12-22T00:43:22.876Z,9.33
2022-12-22T00:46:09.342Z,9.42
2022-12-22T00:48:55.063Z,9.40
2022-12-22T00:51:39.866Z,9.35
2022-12-22T00:54:31.911Z,9.37
2022-12-22T00:57:28.597Z,9.32
2022-12-22T01:00:18.904Z,9.27
2022-12-22T01:03:04.150Z,9.29
2022-12-22T01:06:05.295Z,9.33
2022-12-22T01:08:51.591Z,9.39
2022-12-22T01:11:36.464Z,9.38
2022-12-22T01:14:22.132Z,9.44
2022-12-22T01:17:07.009Z,9.40
2022-12-22T01:19:52.552Z,9.38
2022-12-22T01:22:40.041Z,9.32
2022-12-22T01:25:31.471Z,9.26
2022-12-22T01:28:16.415Z,9.31
2022-12-22T01:31:02.585Z,9.20
2022-12-22T01:33:50.797Z,9.27
2022-12-22T01:36:36.527Z,9.28
2022-12-22T01:39:22.515Z,9.16
2022-12-22T01:42:08.454Z,9.13
2022-12-22T01:44:59.555Z,9.16
2022-12-22T01:47:50.404Z,9.32
2022-12-22T01:50:50.795Z,9.50
2022-12-22T01:53:45.680Z,9.44
2022-12-22T01:56:30.906Z,9.42
2022-12-22T01:59:19.308Z,9.44
2022-12-22T02:02:04.713Z,9.51
2022-12-22T02:05:00.872Z,9.59
2022-12-22T02:08:05.973Z,9.57
2022-12-22T02:11:30.727Z,9.58
2022-12-22T02:14:30.291Z,9.62
2022-12-22T02:17:18.530Z,9.67
2022-12-22T02:20:22.236Z,9.72
2022-12-22T02:23:26.815Z,9.77
2022-12-22T02:26:45.156Z,9.76
2022-12-22T02:29:33.700Z,9.83
2022-12-22T02:32:18.851Z,9.86
2022-12-22T02:35:04.806Z,9.81
2022-12-22T02:38:13.243Z,9.74
2022-12-22T02:41:22.779Z,9.60
2022-12-22T02:44:26.525Z,9.38
2022-12-22T02:47:45.700Z,9.39
2022-12-22T02:53:42.838Z,9.56
2022-12-22T02:56:29.630Z,9.56
2022-12-22T02:59:21.184Z,9.66
2022-12-22T03:05:40.780Z,9.68
2022-12-22T03:08:26.115Z,9.56
2022-12-22T03:11:11.262Z,9.45
2022-12-22T03:17:05.654Z,9.45
2022-12-22T03:19:50.794Z,9.36
2022-12-22T03:22:47.899Z,9.42
2022-12-22T03:25:33.449Z,9.39
2022-12-22T03:28:23.167Z,9.48
2022-12-22T03:30:55.777Z,9.43
2022-12-22T03:33:22.681Z,9.48
2022-12-22T03:35:49.260Z,9.40
2022-12-22T03:38:16.084Z,9.44
2022-12-22T03:40:44.584Z,9.29
2022-12-22T03:43:34.494Z,9.46
2022-12-22T03:46:29.422Z,9.44
2022-12-22T03:49:10.640Z,9.46
2022-12-22T03:51:48.877Z,9.53
2022-12-22T03:54:30.201Z,9.47
2022-12-22T03:56:56.789Z,9.44
2022-12-22T03:59:23.436Z,9.48
2022-12-22T04:01:54.595Z,9.42
2022-12-22T04:04:49.625Z,9.32
2022-12-22T04:07:16.197Z,9.46
2022-12-22T04:10:12.570Z,9.51
2022-12-22T04:16:13.254Z,9.45
2022-12-22T04:18:58.373Z,9.45
2022-12-22T04:21:28.125Z,9.57
2022-12-22T04:23:55.034Z,9.59
2022-12-22T04:26:23.434Z,9.68
2022-12-22T04:28:51.737Z,9.57
2022-12-22T04:31:19.176Z,9.63
2022-12-22T04:33:46.362Z,9.70
2022-12-22T04:36:13.666Z,9.57
2022-12-22T04:38:40.432Z,9.62
2022-12-22T04:41:07.565Z,9.68
2022-12-22T04:46:40.952Z,9.72
2022-12-22T04:49:07.687Z,9.68
2022-12-22T04:51:34.239Z,9.72
2022-12-22T04:54:00.772Z,9.80
2022-12-22T04:56:30.393Z,9.84
2022-12-22T04:58:57.022Z,9.85
2022-12-22T05:01:23.706Z,9.89
2022-12-22T05:03:53.637Z,9.82
2022-12-22T05:07:10.647Z,9.75
2022-12-22T05:09:37.182Z,9.79
2022-12-22T05:12:23.868Z,9.69
2022-12-22T05:14:50.442Z,9.86
2022-12-22T05:17:17.055Z,9.87
2022-12-22T05:19:43.725Z,9.88
2022-12-22T05:22:10.366Z,9.88
2022-12-22T05:24:36.914Z,9.62
2022-12-22T05:29:44.608Z,9.85
2022-12-22T05:32:11.281Z,9.84
2022-12-22T05:34:37.878Z,9.94
2022-12-22T05:37:29.898Z,9.87
2022-12-22T05:40:06.176Z,9.89
2022-12-22T05:42:57.705Z,9.81
2022-12-22T05:45:24.369Z,9.84
2022-12-22T05:47:52.435Z,9.62
2022-12-22T05:50:24.497Z,9.73
2022-12-22T05:53:05.335Z,9.77
2022-12-22T05:55:32.430Z,9.92
2022-12-22T05:58:02.069Z,9.93
2022-12-22T06:00:30.837Z,9.78
2022-12-22T06:02:58.704Z,9.86
2022-12-22T06:05:25.613Z,9.90
2022-12-22T06:07:52.351Z,9.76
2022-12-22T06:10:19.102Z,9.91
2022-12-22T06:12:45.669Z,9.97
2022-12-22T06:15:13.979Z,9.78
2022-12-22T06:17:44.732Z,9.87
2022-12-22T06:20:13.648Z,9.93
2022-12-22T06:22:40.222Z,10.08
2022-12-22T06:25:18.029Z,9.61
2022-12-22T06:27:45.948Z,9.69
2022-12-22T06:30:12.936Z,9.92
2022-12-22T06:32:39.755Z,10.01
2022-12-22T06:35:14.329Z,10.06
2022-12-22T06:37:41.321Z,9.80
2022-12-22T06:40:09.340Z,9.97
2022-12-22T06:42:55.387Z,10.00
2022-12-22T06:45:42.050Z,9.92
2022-12-22T06:48:10.074Z,9.95
2022-12-22T06:51:01.774Z,9.99
2022-12-22T06:53:28.368Z,10.02
2022-12-22T06:55:54.913Z,10.08
2022-12-22T06:58:24.761Z,10.09
2022-12-22T07:00:51.837Z,9.95
2022-12-22T07:03:18.568Z,9.91
2022-12-22T07:05:45.959Z,9.85
2022-12-22T07:08:22.335Z,10.01
2022-12-22T07:10:58.819Z,9.90
2022-12-22T07:16:43.779Z,9.84
2022-12-22T07:19:14.470Z,9.91
2022-12-22T07:21:41.029Z,9.94
2022-12-22T07:24:08.024Z,9.92
2022-12-22T07:26:34.651Z,9.95
2022-12-22T07:29:02.413Z,9.83
2022-12-22T07:31:29.099Z,9.90
2022-12-22T07:33:56.055Z,9.88
2022-12-22T07:36:22.861Z,9.87
2022-12-22T07:38:51.398Z,9.94
2022-12-22T07:41:38.323Z,9.93
2022-12-22T07:44:07.094Z,10.01
2022-12-22T07:46:38.877Z,9.97
2022-12-22T07:52:41.926Z,10.18
2022-12-22T07:55:09.120Z,10.10
2022-12-22T07:57:36.047Z,10.06
2022-12-22T08:00:03.476Z,10.02
2022-12-22T08:02:39.521Z,9.57
2022-12-22T08:05:08.031Z,9.96
2022-12-22T08:07:35.096Z,9.86
2022-12-22T08:10:01.777Z,9.91
2022-12-22T08:12:29.731Z,9.92
2022-12-22T08:14:56.819Z,9.97
2022-12-22T08:17:23.548Z,9.87
2022-12-22T08:19:52.606Z,10.10
2022-12-22T08:22:19.541Z,10.13
2022-12-22T08:24:46.035Z,10.10
2022-12-22T08:27:19.551Z,10.22
2022-12-22T08:29:57.279Z,10.31
2022-12-22T08:32:24.537Z,10.48
2022-12-22T08:34:52.533Z,10.45
2022-12-22T08:37:22.691Z,10.43
2022-12-22T08:39:54.919Z,10.43
2022-12-22T08:42:22.792Z,10.43
2022-12-22T08:48:01.713Z,10.46
2022-12-22T08:50:28.328Z,10.15
2022-12-22T08:53:06.514Z,9.93
2022-12-22T08:55:33.462Z,9.81
2022-12-22T08:58:00.959Z,9.95
2022-12-22T09:00:27.694Z,10.02
2022-12-22T09:02:54.352Z,10.13
2022-12-22T09:05:21.148Z,10.38
2022-12-22T09:07:48.627Z,10.33
2022-12-22T09:13:08.767Z,9.82
2022-12-22T09:15:40.639Z,10.07
2022-12-22T09:18:29.227Z,10.07
2022-12-22T09:20:55.937Z,10.04
2022-12-22T09:23:31.358Z,9.79
2022-12-22T09:25:58.004Z,9.91
2022-12-22T09:28:30.644Z,9.67
2022-12-22T09:30:58.321Z,9.75
2022-12-22T09:33:26.355Z,9.50
2022-12-22T09:35:58.976Z,9.79
2022-12-22T09:38:45.524Z,9.84
2022-12-22T09:41:16.128Z,9.95
2022-12-22T09:43:43.602Z,10.09
2022-12-22T09:46:23.779Z,9.77
2022-12-22T09:48:50.927Z,9.77
2022-12-22T09:51:24.419Z,9.93
2022-12-22T09:53:59.463Z,9.86
2022-12-22T09:56:27.982Z,10.03
2022-12-22T09:58:59.007Z,9.75
2022-12-22T10:01:53.260Z,9.87
2022-12-22T10:05:01.565Z,9.77
2022-12-22T10:07:53.954Z,9.98
2022-12-22T10:10:27.633Z,10.06
2022-12-22T10:13:00.195Z,10.03
2022-12-22T10:15:27.950Z,9.83
2022-12-22T10:18:10.037Z,10.00
2022-12-22T10:20:46.169Z,10.03
2022-12-22T10:23:25.380Z,9.86
2022-12-22T10:28:48.292Z,10.15
2022-12-22T10:32:18.464Z,10.00
2022-12-22T10:35:06.190Z,9.86
2022-12-22T10:37:38.729Z,10.01
2022-12-22T10:40:33.407Z,10.17
2022-12-22T10:43:02.133Z,10.20
2022-12-22T10:45:28.746Z,9.65
2022-12-22T10:47:57.386Z,9.85
2022-12-22T10:50:24.213Z,9.88
2022-12-22T10:52:56.468Z,9.98
2022-12-22T10:55:29.322Z,9.89
2022-12-22T10:58:30.252Z,10.02
2022-12-22T11:01:05.147Z,10.14
2022-12-22T11:03:35.891Z,10.15
2022-12-22T11:06:02.552Z,10.02
2022-12-22T11:08:31.460Z,10.24
2022-12-22T11:11:11.065Z,9.71
2022-12-22T11:14:04.763Z,9.97
2022-12-22T11:16:51.560Z,10.21
2022-12-22T11:19:42.677Z,10.18
2022-12-22T11:22:28.276Z,10.10
2022-12-22T11:25:06.436Z,10.30
2022-12-22T11:28:04.325Z,10.33
2022-12-22T11:31:13.118Z,10.26
2022-12-22T11:33:54.648Z,10.52
2022-12-22T11:36:46.038Z,10.52
2022-12-22T11:39:15.522Z,10.53
2022-12-22T11:42:28.486Z,10.59
2022-12-22T11:45:30.625Z,10.47
2022-12-22T11:47:57.179Z,10.58
2022-12-22T11:51:01.264Z,10.74
2022-12-22T11:54:08.682Z,10.78
2022-12-22T11:56:47.294Z,10.89
2022-12-22T11:59:45.394Z,11.02
2022-12-22T12:02:44.477Z,11.06
2022-12-22T12:05:38.353Z,10.94
2022-12-22T12:08:16.236Z,11.35
2022-12-22T12:10:54.344Z,11.18
2022-12-22T12:13:37.487Z,10.83
2022-12-22T12:16:34.936Z,10.56
2022-12-22T12:19:26.857Z,10.52
2022-12-22T12:21:59.912Z,10.63
2022-12-22T12:24:52.004Z,10.78
2022-12-22T12:27:18.530Z,10.92
2022-12-22T12:33:06.564Z,10.54
2022-12-22T12:36:02.598Z,10.56
2022-12-22T12:39:07.526Z,10.33
2022-12-22T12:41:45.211Z,10.48
2022-12-22T12:44:15.254Z,10.77
2022-12-22T12:46:51.549Z,11.06
2022-12-22T12:50:02.057Z,11.05
2022-12-22T12:52:40.914Z,11.02
2022-12-22T12:55:32.536Z,10.57
2022-12-22T12:58:03.272Z,10.80
2022-12-22T13:00:35.837Z,10.90
2022-12-22T13:03:02.633Z,10.93
2022-12-22T13:05:33.023Z,10.54
2022-12-22T13:08:20.831Z,10.97
2022-12-22T13:10:55.450Z,10.74
2022-12-22T13:13:25.759Z,10.65
2022-12-22T13:16:13.452Z,10.88
2022-12-22T13:18:49.824Z,10.77
2022-12-22T13:22:31.790Z,10.67
2022-12-22T13:25:04.341Z,10.54
2022-12-22T13:27:36.974Z,10.52
2022-12-22T13:30:19.420Z,10.53
2022-12-22T13:33:08.311Z,10.59
2022-12-22T13:35:53.502Z,10.65
2022-12-22T13:38:32.987Z,10.62
2022-12-22T13:41:43.046Z,10.43
2022-12-22T13:44:42.691Z,10.46
2022-12-22T13:47:15.549Z,10.54
2022-12-22T13:50:08.436Z,10.65
2022-12-22T13:53:06.145Z,10.29
2022-12-22T13:55:44.087Z,10.28
2022-12-22T13:58:32.135Z,10.44
2022-12-22T14:04:43.010Z,10.38
2022-12-22T14:07:14.998Z,10.41
2022-12-22T14:09:59.933Z,10.42
2022-12-22T14:12:45.034Z,10.18
2022-12-22T14:15:19.351Z,10.45
2022-12-22T14:17:52.903Z,10.03
2022-12-22T14:20:38.194Z,10.10
2022-12-22T14:23:30.687Z,9.84
2022-12-22T14:25:59.089Z,9.97
2022-12-22T14:28:29.886Z,10.11
2022-12-22T14:31:02.628Z,9.95
2022-12-22T14:33:32.892Z,9.98
2022-12-22T14:36:24.162Z,10.16
2022-12-22T14:38:56.421Z,9.87
2022-12-22T14:41:42.029Z,9.84
2022-12-22T14:44:20.969Z,9.86
2022-12-22T14:47:15.102Z,9.84
2022-12-22T14:49:50.983Z,9.92
2022-12-22T14:52:56.144Z,9.80
2022-12-22T14:55:37.833Z,9.67
2022-12-22T14:58:10.674Z,9.67
2022-12-22T15:00:40.752Z,9.67
2022-12-22T15:03:31.003Z,9.45
2022-12-22T15:06:44.747Z,9.65
2022-12-22T15:09:14.223Z,9.57
2022-12-22T15:11:42.896Z,9.57
2022-12-22T15:14:16.260Z,9.63
2022-12-22T15:16:45.161Z,9.35
2022-12-22T15:19:17.135Z,9.51
2022-12-22T15:21:44.428Z,9.32
2022-12-22T15:24:15.474Z,9.41
2022-12-22T15:26:42.770Z,9.51
2022-12-22T15:29:09.446Z,9.41
2022-12-22T15:31:38.302Z,9.41
2022-12-22T15:34:13.473Z,9.38
2022-12-22T15:36:40.388Z,9.26
2022-12-22T15:39:13.687Z,9.29
2022-12-22T15:41:41.163Z,9.23
2022-12-22T15:44:08.274Z,9.37
2022-12-22T15:46:36.150Z,9.36
2022-12-22T15:49:03.440Z,9.36
2022-12-22T15:51:32.230Z,9.26
2022-12-22T15:54:00.105Z,9.14
2022-12-22T15:56:30.447Z,9.20
2022-12-22T15:58:57.822Z,8.99
2022-12-22T16:01:25.100Z,8.92
2022-12-22T16:03:52.457Z,8.87
2022-12-22T16:06:19.806Z,8.80
2022-12-22T16:08:53.621Z,8.75
2022-12-22T16:14:01.818Z,8.61
2022-12-22T16:16:28.980Z,8.46
2022-12-22T16:18:55.846Z,8.49
2022-12-22T16:21:29.558Z,8.60
2022-12-22T16:23:56.988Z,8.42
2022-12-22T16:26:23.708Z,8.40
2022-12-22T16:28:50.576Z,8.40
2022-12-22T16:31:21.479Z,8.60
2022-12-22T16:33:48.795Z,8.60
2022-12-22T16:36:15.606Z,8.66
2022-12-22T16:38:45.820Z,8.59
2022-12-22T16:41:25.498Z,8.61
2022-12-22T16:43:53.551Z,8.57
2022-12-22T16:46:22.419Z,8.53
2022-12-22T16:48:55.567Z,8.58
2022-12-22T16:51:26.361Z,8.61
2022-12-22T16:53:53.081Z,8.56
2022-12-22T16:56:31.304Z,8.49
2022-12-22T16:58:58.844Z,8.54
2022-12-22T17:01:32.131Z,8.56
2022-12-22T17:04:04.940Z,8.54
2022-12-22T17:06:32.505Z,8.48
2022-12-22T17:08:59.559Z,8.34
2022-12-22T17:11:29.378Z,8.46
2022-12-22T17:14:04.652Z,8.50
2022-12-22T17:16:34.682Z,8.55
2022-12-22T17:19:01.839Z,8.54
2022-12-22T17:21:29.811Z,8.52
2022-12-22T17:24:03.731Z,8.56
2022-12-22T17:26:33.351Z,8.52
2022-12-22T17:29:00.282Z,8.57
2022-12-22T17:31:26.951Z,8.56
2022-12-22T17:33:53.810Z,8.62
2022-12-22T17:36:33.313Z,8.61
2022-12-22T17:39:01.719Z,8.61
2022-12-22T17:41:28.738Z,8.63
2022-12-22T17:43:55.341Z,8.65
2022-12-22T17:46:22.599Z,8.55
2022-12-22T17:48:50.194Z,8.62
2022-12-22T17:51:23.753Z,8.69
2022-12-22T17:53:51.955Z,8.74
2022-12-22T17:56:20.930Z,8.53
2022-12-22T17:58:48.671Z,8.59
2022-12-22T18:01:27.580Z,8.68
2022-12-22T18:03:56.020Z,8.66
2022-12-22T18:06:31.046Z,8.75
2022-12-22T18:08:58.627Z,8.70
2022-12-22T18:11:26.291Z,8.72
2022-12-22T18:13:54.090Z,8.74
2022-12-22T18:16:23.066Z,8.76
2022-12-22T18:18:49.895Z,8.63
2022-12-22T18:21:20.134Z,8.67
2022-12-22T18:23:50.336Z,8.66
2022-12-22T18:26:26.492Z,8.74
2022-12-22T18:28:54.231Z,8.80
2022-12-22T18:31:22.498Z,8.85
2022-12-22T18:33:49.219Z,8.74
2022-12-22T18:36:30.565Z,8.64
2022-12-22T18:38:58.650Z,8.61
2022-12-22T18:41:27.084Z,8.73
2022-12-22T18:43:53.843Z,8.76
2022-12-22T18:46:20.917Z,8.62
2022-12-22T18:48:48.390Z,8.64
2022-12-22T18:51:24.237Z,8.74
2022-12-22T18:53:52.513Z,8.72
2022-12-22T18:56:19.495Z,8.68
2022-12-22T18:58:46.690Z,8.77
2022-12-22T19:01:21.708Z,8.73
2022-12-22T19:03:50.324Z,8.81
2022-12-22T19:06:19.430Z,8.74
2022-12-22T19:08:48.250Z,8.71
2022-12-22T19:11:17.681Z,8.75
2022-12-22T19:13:47.004Z,8.59
2022-12-22T19:16:16.355Z,8.58
2022-12-22T19:18:43.048Z,8.71
2022-12-22T19:21:17.451Z,8.69
2022-12-22T19:23:44.630Z,8.67
2022-12-22T19:26:25.907Z,8.60
2022-12-22T19:28:55.832Z,8.70
2022-12-22T19:31:25.780Z,8.69
2022-12-22T19:33:53.462Z,8.66
2022-12-22T19:36:25.878Z,8.74
2022-12-22T19:39:03.316Z,8.65
2022-12-22T19:41:43.302Z,8.62
2022-12-22T19:44:25.415Z,8.62
2022-12-22T19:46:53.749Z,8.59
2022-12-22T19:49:23.118Z,8.44
2022-12-22T19:51:49.806Z,8.53
2022-12-22T19:54:17.094Z,8.67
2022-12-22T19:56:47.562Z,8.76
2022-12-22T19:59:41.057Z,8.72
2022-12-22T20:02:34.525Z,8.64
2022-12-22T20:05:01.464Z,8.60
2022-12-22T20:07:30.412Z,8.64
2022-12-22T20:09:56.968Z,8.41
2022-12-22T20:12:31.717Z,8.65
2022-12-22T20:14:58.748Z,8.54
2022-12-22T20:17:25.509Z,8.60
2022-12-22T20:20:01.329Z,8.76
2022-12-22T20:22:28.414Z,8.77
2022-12-22T20:24:55.219Z,8.56
2022-12-22T20:27:35.283Z,8.75
2022-12-22T20:30:01.890Z,8.73
2022-12-22T20:32:28.967Z,8.72
2022-12-22T20:35:11.503Z,8.84
2022-12-22T20:37:38.845Z,8.78
2022-12-22T20:40:25.791Z,8.82
2022-12-22T20:42:52.710Z,8.89
2022-12-22T20:45:29.690Z,8.95
2022-12-22T20:51:06.293Z,8.81
2022-12-22T20:54:01.599Z,8.93
2022-12-22T20:56:32.644Z,8.67
2022-12-22T20:59:07.541Z,8.87
2022-12-22T21:01:34.196Z,8.87
2022-12-22T21:04:00.860Z,9.03
2022-12-22T21:06:33.914Z,9.03
2022-12-22T21:09:03.422Z,8.99
2022-12-22T21:11:35.253Z,9.01
2022-12-22T21:14:05.130Z,9.05
2022-12-22T21:16:34.080Z,9.05
2022-12-22T21:19:03.933Z,9.08
2022-12-22T21:21:30.513Z,9.05
2022-12-22T21:23:57.072Z,9.12
2022-12-22T21:26:37.117Z,9.09
2022-12-22T21:29:08.132Z,9.08
2022-12-22T21:31:36.339Z,9.06
2022-12-22T21:34:03.088Z,9.15
2022-12-22T21:36:32.673Z,9.12
2022-12-22T21:39:03.469Z,9.08
2022-12-22T21:41:48.905Z,9.13
2022-12-22T21:44:15.577Z,9.12
2022-12-22T21:46:44.557Z,9.12
2022-12-22T21:49:19.782Z,9.16
2022-12-22T21:52:12.182Z,9.07
2022-12-22T21:54:38.986Z,9.17
2022-12-22T21:57:05.881Z,9.27
2022-12-22T21:59:32.453Z,9.38
2022-12-22T22:01:59.155Z,9.43
2022-12-22T22:04:25.955Z,9.36
2022-12-22T22:06:52.572Z,9.48
2022-12-22T22:09:19.247Z,9.43
2022-12-22T22:12:04.255Z,9.60
2022-12-22T22:14:30.990Z,9.62
2022-12-22T22:16:57.655Z,9.62
2022-12-22T22:19:24.267Z,9.70
2022-12-22T22:21:50.982Z,9.74
2022-12-22T22:24:17.612Z,9.74
2022-12-22T22:26:46.009Z,9.92
2022-12-22T22:29:12.847Z,10.01
2022-12-22T22:31:40.451Z,9.95
2022-12-22T22:34:07.047Z,9.92
2022-12-22T22:36:33.628Z,10.08
2022-12-22T22:39:00.159Z,10.16
2022-12-22T22:41:28.482Z,10.16
2022-12-22T22:43:55.130Z,10.27
2022-12-22T22:46:21.806Z,10.26
2022-12-22T22:48:48.677Z,10.32
2022-12-22T22:51:15.241Z,10.45
2022-12-22T22:53:42.217Z,10.25
2022-12-22T22:56:09.179Z,10.23
2022-12-22T22:58:35.746Z,10.28
2022-12-22T23:01:11.298Z,10.27
2022-12-22T23:03:38.233Z,10.29
2022-12-22T23:06:07.799Z,10.36
2022-12-22T23:08:35.176Z,10.20
2022-12-22T23:11:02.827Z,10.30
2022-12-22T23:13:29.567Z,10.41
2022-12-22T23:15:58.433Z,10.46
2022-12-22T23:18:25.634Z,10.46
2022-12-22T23:20:52.453Z,10.64
2022-12-22T23:23:19.823Z,10.53
2022-12-22T23:25:49.605Z,10.44
2022-12-22T23:28:16.797Z,10.53
2022-12-22T23:30:45.313Z,10.41
2022-12-22T23:33:11.984Z,10.41
2022-12-22T23:35:40.257Z,10.34
2022-12-22T23:38:09.700Z,10.34
2022-12-22T23:40:54.710Z,10.50
2022-12-22T23:43:22.335Z,10.32
2022-12-22T23:45:49.207Z,10.45
2022-12-22T23:48:15.824Z,10.55
2022-12-22T23:50:45.889Z,10.50
2022-12-22T23:53:12.499Z,10.53
2022-12-22T23:55:44.584Z,10.33
2022-12-22T23:58:11.968Z,10.43
